Gray Gables, Washington
Current Conditions -  °F | °C
As of 11:53 PM on Thursday 18 Dec 2014 (Local Time) from KHQM Reporting Station
Few Clouds Few Clouds  
Wind Chill: 50°   Ceiling: Unl
Heat Index: 50°   Visibility: 8mi
Dew Point: 47°   Wind: 13mph
Humidity: 89%   Direction: 150°SSE
Pressure: 29.76"   Gusts: NA
Location:  47.0202°N, 123.878°W
Report Text: KHQM 190753Z AUTO 15011KT 8SM FEW025 FEW055 10/08 A2976 RMK AO2 SLP079 T01000083 401000061
Loading
Personal Weather Stations






























Interactive Weather Map New forecast layout! Learn more

10-Day Weather Forecast

Advertisements
Track Severe Weather on mobile